Welcome to Northern Hawkes Bay. New Zealand.
PWS Header
      nz Flag



Hit Counter


W3C Valid W3C Valid logo


    Wairoa

Select any of the Stations below to visit their websites.










Historic Data from Weather Underground
Select the location of interest below. Wairoa is the default. Please have patience, this Data is slow to load in.
Northern Hawkes Bay Historical Data
Daily Summary for November 5, 2017 Units:  Metric    English   Both
« Previous Day
Next Day »
Daily Weekly Monthly Yearly Custom
  High: Low: Average:
Temperature: 24.5 °C 14.2 °C 19.6 °C
Dew Point: 14.5 °C 9.9 °C 12 °C
Humidity: 84% 47% 62%
Wind Speed: 23.3km/h 0.0km/h 6km/h
Wind Gust: 34.3km/h - -
Wind- - NW
Pressure: 1011.4 hPa 1008.4 hPa -
Precipitation: 0.0 mm    
Historical Graphs
 
 
Tabular Data for November 5, 2017
Time Temperature Dew Point Pressure Wind Wind Speed Wind Gust Humidity Rainfall Rate (Hourly) solar
00:02 17.3 °C 13.1 °C 1011.1 hPa North 3.5 km/h 7.2 km/h 76% 0.0 mm 0 W/m2
00:07 17.6 °C 12.7 °C 1011.1 hPa NNW 2.6 km/h 9.7 km/h 73% 0.0 mm 0 W/m2
00:12 17.9 °C 12.6 °C 1011.1 hPa North 5.0 km/h 12.2 km/h 71% 0.0 mm 0 W/m2
00:17 18.2 °C 12.2 °C 1010.7 hPa North 8.7 km/h 19.5 km/h 68% 0.0 mm 0 W/m2
00:22 18.5 °C 12.1 °C 1010.7 hPa North 9.7 km/h 20.9 km/h 66% 0.0 mm 0 W/m2
00:27 18.6 °C 12.1 °C 1010.7 hPa NNW 6.1 km/h 20.9 km/h 66% 0.0 mm 0 W/m2
00:32 18.6 °C 12.1 °C 1010.7 hPa NNW 3.5 km/h 18.3 km/h 66% 0.0 mm 0 W/m2
00:37 18.7 °C 12.0 °C 1011.1 hPa NNW 7.2 km/h 18.3 km/h 65% 0.0 mm 0 W/m2
00:42 18.7 °C 12.0 °C 1011.1 hPa NNW 6.1 km/h 18.3 km/h 65% 0.0 mm 0 W/m2
00:47 18.6 °C 12.1 °C 1011.1 hPa NW 11.1 km/h 14.8 km/h 66% 0.0 mm 0 W/m2
00:52 18.5 °C 12.1 °C 1010.7 hPa NNW 1.1 km/h 14.8 km/h 66% 0.0 mm 0 W/m2
00:57 18.4 °C 11.9 °C 1010.7 hPa North 5.0 km/h 14.8 km/h 66% 0.0 mm 0 W/m2
01:02 18.4 °C 12.2 °C 1010.7 hPa North 6.1 km/h 12.2 km/h 67% 0.0 mm 0 W/m2
01:07 18.4 °C 12.2 °C 1010.7 hPa NNW 5.0 km/h 12.2 km/h 67% 0.0 mm 0 W/m2
01:12 18.3 °C 12.1 °C 1010.7 hPa NNW 3.5 km/h 11.1 km/h 67% 0.0 mm 0 W/m2
01:17 18.3 °C 12.1 °C 1010.7 hPa NNW 2.6 km/h 11.1 km/h 67% 0.0 mm 0 W/m2
01:22 18.2 °C 12.0 °C 1010.7 hPa North 2.6 km/h 9.7 km/h 67% 0.0 mm 0 W/m2
01:27 18.3 °C 11.8 °C 1010.4 hPa North 1.1 km/h 12.2 km/h 66% 0.0 mm 0 W/m2
01:32 18.2 °C 11.8 °C 1010.7 hPa NNW 1.1 km/h 12.2 km/h 66% 0.0 mm 0 W/m2
01:37 18.2 °C 11.8 °C 1010.7 hPa NNW 2.6 km/h 9.7 km/h 66% 0.0 mm 0 W/m2
01:42 18.1 °C 11.9 °C 1010.7 hPa NNW 2.6 km/h 9.7 km/h 67% 0.0 mm 0 W/m2
01:47 18.0 °C 11.8 °C 1010.7 hPa NNW 2.6 km/h 6.1 km/h 67% 0.0 mm 0 W/m2
01:52 17.9 °C 11.7 °C 1010.4 hPa NNW 1.1 km/h 7.2 km/h 67% 0.0 mm 0 W/m2
01:57 17.8 °C 11.6 °C 1010.4 hPa Calm   7.2 km/h 67% 0.0 mm 0 W/m2
02:02 17.8 °C 11.8 °C 1010.7 hPa Calm   6.1 km/h 68% 0.0 mm 0 W/m2
02:07 17.7 °C 11.7 °C 1010.7 hPa Calm   6.1 km/h 68% 0.0 mm 0 W/m2
02:12 17.7 °C 11.7 °C 1010.4 hPa Calm   6.1 km/h 68% 0.0 mm 0 W/m2
02:17 17.3 °C 11.8 °C 1010.4 hPa NW 1.1 km/h 6.1 km/h 70% 0.0 mm 0 W/m2
02:22 17.1 °C 11.8 °C 1010.4 hPa Calm   5.0 km/h 71% 0.0 mm 0 W/m2
02:27 17.1 °C 11.8 °C 1010.4 hPa Calm   5.0 km/h 71% 0.0 mm 0 W/m2
02:32 17.2 °C 11.9 °C 1010.4 hPa North 2.6 km/h 5.0 km/h 71% 0.0 mm 0 W/m2
02:37 17.3 °C 11.8 °C 1010.0 hPa North 1.1 km/h 5.0 km/h 70% 0.0 mm 0 W/m2
02:42 17.3 °C 11.8 °C 1010.4 hPa Calm   5.0 km/h 70% 0.0 mm 0 W/m2
02:47 17.1 °C 11.6 °C 1010.4 hPa Calm   3.5 km/h 70% 0.0 mm 0 W/m2
02:52 16.7 °C 11.6 °C 1010.4 hPa Calm     72% 0.0 mm 0 W/m2
02:57 16.6 °C 11.6 °C 1010.7 hPa Calm     72% 0.0 mm 0 W/m2
03:02 16.4 °C 11.6 °C 1010.7 hPa Calm     73% 0.0 mm 0 W/m2
03:07 16.3 °C 11.4 °C 1010.7 hPa Calm     73% 0.0 mm 0 W/m2
03:12 16.4 °C 11.6 °C 1010.7 hPa Calm   1.1 km/h 73% 0.0 mm 0 W/m2
03:17 16.5 °C 11.4 °C 1010.7 hPa Calm   1.1 km/h 72% 0.0 mm 0 W/m2
03:22 16.9 °C 11.4 °C 1010.7 hPa Calm   13.4 km/h 70% 0.0 mm 0 W/m2
03:27 17.3 °C 11.1 °C 1010.7 hPa Calm   13.4 km/h 67% 0.0 mm 0 W/m2
03:32 17.2 °C 11.3 °C 1011.1 hPa Calm   6.1 km/h 68% 0.0 mm 0 W/m2
03:38 16.9 °C 11.2 °C 1010.7 hPa Calm     69% 0.0 mm 0 W/m2
03:43 16.9 °C 11.4 °C 1010.7 hPa NW 2.6 km/h 7.2 km/h 70% 0.0 mm 0 W/m2
03:48 17.2 °C 10.8 °C 1010.7 hPa Calm   7.2 km/h 66% 0.0 mm 0 W/m2
03:53 17.2 °C 10.8 °C 1010.7 hPa Calm   6.1 km/h 66% 0.0 mm 0 W/m2
03:58 17.0 °C 10.8 °C 1010.7 hPa NNW 1.1 km/h 8.7 km/h 67% 0.0 mm 0 W/m2
04:03 17.2 °C 10.6 °C 1010.7 hPa NNW 1.1 km/h 8.7 km/h 65% 0.0 mm 0 W/m2
04:08 17.2 °C 10.3 °C 1010.7 hPa Calm   8.7 km/h 64% 0.0 mm 0 W/m2
04:13 17.2 °C 10.3 °C 1010.4 hPa North 2.6 km/h 9.7 km/h 64% 0.0 mm 0 W/m2
04:18 17.2 °C 10.3 °C 1010.4 hPa Calm   9.7 km/h 64% 0.0 mm 0 W/m2
04:23 17.2 °C 10.3 °C 1010.4 hPa North 2.6 km/h 8.7 km/h 64% 0.0 mm 0 W/m2
04:28 17.3 °C 10.2 °C 1010.7 hPa Calm   6.1 km/h 63% 0.0 mm 0 W/m2
04:33 17.2 °C 10.1 °C 1010.7 hPa North 1.1 km/h 6.1 km/h 63% 0.0 mm 0 W/m2
04:38 17.2 °C 10.1 °C 1010.4 hPa North 2.6 km/h 6.1 km/h 63% 0.0 mm 0 W/m2
04:43 17.3 °C 10.2 °C 1010.4 hPa Calm   6.1 km/h 63% 0.0 mm 0 W/m2
04:48 17.4 °C 10.3 °C 1010.7 hPa Calm   7.2 km/h 63% 0.0 mm 0 W/m2
04:53 17.4 °C 10.1 °C 1010.4 hPa North 8.7 km/h 12.2 km/h 62% 0.0 mm 0 W/m2
04:58 17.6 °C 10.0 °C 1010.7 hPa North 5.0 km/h 12.2 km/h 61% 0.0 mm 0 W/m2
05:03 17.6 °C 10.0 °C 1010.7 hPa Calm   12.2 km/h 61% 0.0 mm 0 W/m2
05:08 17.4 °C 10.1 °C 1010.7 hPa Calm   8.7 km/h 62% 0.0 mm 0 W/m2
05:13 17.5 °C 10.2 °C 1010.4 hPa NNW 1.1 km/h 9.7 km/h 62% 0.0 mm 0 W/m2
05:19 17.4 °C 10.1 °C 1010.7 hPa NNW 1.1 km/h 9.7 km/h 62% 0.0 mm 0 W/m2
05:24 17.3 °C 9.9 °C 1010.7 hPa Calm   7.2 km/h 62% 0.0 mm 0 W/m2
05:29 17.1 °C 10.0 °C 1010.4 hPa Calm   7.2 km/h 63% 0.0 mm 0 W/m2
05:34 17.0 °C 9.9 °C 1010.7 hPa NNW 2.6 km/h 7.2 km/h 63% 0.0 mm 0 W/m2
05:39 17.0 °C 9.9 °C 1010.7 hPa Calm   7.2 km/h 63% 0.0 mm 0 W/m2
05:44 16.9 °C 10.3 °C 1010.7 hPa North 1.1 km/h 7.2 km/h 65% 0.0 mm 0 W/m2
05:49 16.9 °C 10.3 °C 1010.7 hPa NNW 1.1 km/h 8.7 km/h 65% 0.0 mm 0 W/m2
05:54 16.7 °C 10.1 °C 1010.7 hPa Calm   8.7 km/h 65% 0.0 mm 0 W/m2
05:59 16.7 °C 10.1 °C 1010.7 hPa North 2.6 km/h 11.1 km/h 65% 0.0 mm 0 W/m2
06:05 16.7 °C 10.3 °C 1010.4 hPa North 3.5 km/h 11.1 km/h 66% 0.0 mm 0 W/m2
06:10 16.7 °C 10.3 °C 1010.7 hPa North 2.6 km/h 9.7 km/h 66% 0.0 mm 0 W/m2
06:15 16.7 °C 10.1 °C 1010.4 hPa NNW 2.6 km/h 8.7 km/h 65% 0.0 mm 0 W/m2
06:20 16.7 °C 10.1 °C 1010.7 hPa NNW 6.1 km/h 9.7 km/h 65% 0.0 mm 3 W/m2
06:25 16.9 °C 10.3 °C 1010.7 hPa NNW 5.0 km/h 11.1 km/h 65% 0.0 mm 5 W/m2
06:30 16.9 °C 10.5 °C 1010.7 hPa NNW 7.2 km/h 14.8 km/h 66% 0.0 mm 9 W/m2
06:35 16.9 °C 10.5 °C 1010.7 hPa NNW 9.7 km/h 14.8 km/h 66% 0.0 mm 13 W/m2
06:40 16.9 °C 10.5 °C 1011.1 hPa NNW 2.6 km/h 14.8 km/h 66% 0.0 mm 20 W/m2
06:45 16.7 °C 10.6 °C 1011.1 hPa NNW 5.0 km/h 12.2 km/h 67% 0.0 mm 24 W/m2
06:50 16.9 °C 10.7 °C 1011.1 hPa NNW 6.1 km/h 12.2 km/h 67% 0.0 mm 24 W/m2
06:55 16.7 °C 10.6 °C 1010.7 hPa NNW 3.5 km/h 12.2 km/h 67% 0.0 mm 28 W/m2
07:00 16.7 °C 10.8 °C 1011.1 hPa NNW 1.1 km/h 9.7 km/h 68% 0.0 mm 32 W/m2
07:05 16.7 °C 10.8 °C 1011.1 hPa North 2.6 km/h 11.1 km/h 68% 0.0 mm 37 W/m2
07:10 16.7 °C 11.0 °C 1011.1 hPa North 2.6 km/h 11.1 km/h 69% 0.0 mm 40 W/m2
07:15 16.7 °C 11.0 °C 1011.1 hPa North 3.5 km/h 12.2 km/h 69% 0.0 mm 44 W/m2
07:20 16.9 °C 11.2 °C 1011.1 hPa North 2.6 km/h 12.2 km/h 69% 0.0 mm 57 W/m2
07:25 17.2 °C 11.0 °C 1011.1 hPa NNW 5.0 km/h 13.4 km/h 67% 0.0 mm 66 W/m2
07:30 17.3 °C 11.1 °C 1011.1 hPa NNW 2.6 km/h 13.4 km/h 67% 0.0 mm 76 W/m2
07:36 17.4 °C 11.2 °C 1011.1 hPa NNW 2.6 km/h 9.7 km/h 67% 0.0 mm 76 W/m2
07:41 17.5 °C 11.3 °C 1011.1 hPa North 5.0 km/h 11.1 km/h 67% 0.0 mm 82 W/m2
07:46 17.5 °C 11.3 °C 1011.1 hPa NNW 5.0 km/h 13.4 km/h 67% 0.0 mm 92 W/m2
07:51 17.6 °C 11.6 °C 1011.1 hPa NNW 6.1 km/h 17.2 km/h 68% 0.0 mm 106 W/m2
07:55 17.7 °C 11.7 °C 1011.1 hPa North 7.2 km/h 17.2 km/h 68% 0.0 mm 114 W/m2
08:01 17.8 °C 11.8 °C 1011.1 hPa NNW 7.2 km/h 14.8 km/h 68% 0.0 mm 119 W/m2
08:06 17.9 °C 11.9 °C 1011.1 hPa NNW 5.0 km/h 13.4 km/h 68% 0.0 mm 127 W/m2
08:11 17.9 °C 11.7 °C 1011.1 hPa NNW 6.1 km/h 15.8 km/h 67% 0.0 mm 125 W/m2
08:15 18.0 °C 11.8 °C 1011.4 hPa NNW 3.5 km/h 15.8 km/h 67% 0.0 mm 146 W/m2
08:20 18.2 °C 12.0 °C 1011.4 hPa NNW 5.0 km/h 13.4 km/h 67% 0.0 mm 179 W/m2
08:26 18.5 °C 12.3 °C 1011.4 hPa NNW 8.7 km/h 15.8 km/h 67% 0.0 mm 171 W/m2
08:30 18.6 °C 12.1 °C 1011.1 hPa NNW 11.1 km/h 19.5 km/h 66% 0.0 mm 159 W/m2
08:35 18.6 °C 12.1 °C 1011.1 hPa North 11.1 km/h 21.9 km/h 66% 0.0 mm 175 W/m2
08:41 18.8 °C 12.3 °C 1011.1 hPa NNW 7.2 km/h 21.9 km/h 66% 0.0 mm 185 W/m2
08:45 18.8 °C 12.1 °C 1011.1 hPa North 12.2 km/h 23.3 km/h 65% 0.0 mm 160 W/m2
08:50 18.8 °C 12.3 °C 1011.4 hPa North 12.2 km/h 23.3 km/h 66% 0.0 mm 133 W/m2
08:56 18.7 °C 12.4 °C 1011.1 hPa NNW 13.4 km/h 24.5 km/h 67% 0.0 mm 174 W/m2
09:01 18.9 °C 12.4 °C 1011.1 hPa NNW 5.0 km/h 24.5 km/h 66% 0.0 mm 216 W/m2
09:05 19.2 °C 12.5 °C 1011.4 hPa North 7.2 km/h 21.9 km/h 65% 0.0 mm 194 W/m2
09:11 19.3 °C 12.6 °C 1011.4 hPa North 3.5 km/h 21.9 km/h 65% 0.0 mm 283 W/m2
09:16 19.8 °C 12.8 °C 1011.4 hPa North 12.2 km/h 21.9 km/h 64% 0.0 mm 313 W/m2
09:21 20.1 °C 12.6 °C 1011.4 hPa North 8.7 km/h 21.9 km/h 62% 0.0 mm 343 W/m2
09:26 20.3 °C 12.3 °C 1011.4 hPa North 11.1 km/h 25.6 km/h 60% 0.0 mm 318 W/m2
09:31 20.3 °C 12.8 °C 1011.1 hPa North 13.4 km/h 25.6 km/h 62% 0.0 mm 371 W/m2
09:36 20.2 °C 12.4 °C 1011.1 hPa North 9.7 km/h 18.3 km/h 61% 0.0 mm 299 W/m2
09:41 20.2 °C 12.7 °C 1011.1 hPa North 8.7 km/h 18.3 km/h 62% 0.0 mm 254 W/m2
09:45 20.1 °C 12.6 °C 1011.1 hPa NNW 6.1 km/h 23.3 km/h 62% 0.0 mm 367 W/m2
09:50 20.8 °C 12.5 °C 1011.1 hPa North 8.7 km/h 27.0 km/h 59% 0.0 mm 508 W/m2
09:55 21.2 °C 12.6 °C 1011.1 hPa North 14.8 km/h 27.0 km/h 58% 0.0 mm 482 W/m2
10:00 21.3 °C 12.2 °C 1011.1 hPa North 11.1 km/h 20.9 km/h 56% 0.0 mm 406 W/m2
10:05 20.9 °C 12.1 °C 1011.1 hPa North 6.1 km/h 25.6 km/h 57% 0.0 mm 512 W/m2
10:10 21.0 °C 12.2 °C 1011.1 hPa North 13.4 km/h 25.6 km/h 57% 0.0 mm 400 W/m2
10:15 21.0 °C 11.9 °C 1011.1 hPa North 13.4 km/h 25.6 km/h 56% 0.0 mm 577 W/m2
10:20 21.2 °C 12.3 °C 1010.7 hPa North 7.2 km/h 25.6 km/h 57% 0.0 mm 570 W/m2
10:25 21.6 °C 12.4 °C 1011.1 hPa NNW 13.4 km/h 23.3 km/h 56% 0.0 mm 437 W/m2
10:30 21.6 °C 12.7 °C 1011.1 hPa NNW 7.2 km/h 23.3 km/h 57% 0.0 mm 617 W/m2
10:35 21.6 °C 12.4 °C 1011.1 hPa NNW 13.4 km/h 24.5 km/h 56% 0.0 mm 541 W/m2
10:40 21.4 °C 11.7 °C 1010.7 hPa NW 8.7 km/h 28.0 km/h 54% 0.0 mm 466 W/m2
10:46 21.5 °C 12.4 °C 1010.7 hPa NNW 6.1 km/h 28.0 km/h 56% 0.0 mm 216 W/m2
10:51 21.8 °C 12.7 °C 1010.7 hPa NNW 7.2 km/h 21.9 km/h 56% 0.0 mm 684 W/m2
10:55 21.9 °C 12.4 °C 1011.1 hPa NNW 7.2 km/h 24.5 km/h 55% 0.0 mm 702 W/m2
11:00 21.8 °C 12.4 °C 1010.7 hPa NNW 8.7 km/h 24.5 km/h 55% 0.0 mm 725 W/m2
11:05 22.0 °C 12.6 °C 1010.4 hPa NNW 7.2 km/h 20.9 km/h 55% 0.0 mm 727 W/m2
11:10 22.2 °C 12.4 °C 1010.4 hPa North 5.0 km/h 19.5 km/h 54% 0.0 mm 592 W/m2
11:15 22.4 °C 12.4 °C 1010.4 hPa North 7.2 km/h 19.5 km/h 53% 0.0 mm 589 W/m2
11:20 22.3 °C 12.8 °C 1010.4 hPa NNW 8.7 km/h 19.5 km/h 55% 0.0 mm 654 W/m2
11:21 22.3 °C 12.6 °C 1010.4 hPa NNW 12.2 km/h 19.5 km/h 54% 0.0 mm 550 W/m2
11:26 22.7 °C 12.9 °C 1010.4 hPa NNW 3.5 km/h 14.8 km/h 54% 0.0 mm 720 W/m2
11:31 22.7 °C 12.9 °C 1010.4 hPa North 11.1 km/h 17.2 km/h 54% 0.0 mm 666 W/m2
11:36 23.2 °C 13.7 °C 1010.0 hPa North 3.5 km/h 17.2 km/h 55% 0.0 mm 820 W/m2
11:41 23.6 °C 13.5 °C 1010.0 hPa NNW 3.5 km/h 15.8 km/h 53% 0.0 mm 840 W/m2
11:46 24.0 °C 13.6 °C 1010.4 hPa NNW 14.8 km/h 19.5 km/h 52% 0.0 mm 842 W/m2
11:52 24.1 °C 12.4 °C 1010.7 hPa NW 18.3 km/h 30.6 km/h 48% 0.0 mm 842 W/m2
11:56 23.6 °C 12.6 °C 1010.4 hPa NW 23.3 km/h 30.6 km/h 50% 0.0 mm 848 W/m2
12:02 24.0 °C 12.3 °C 1010.0 hPa NW 18.3 km/h 30.6 km/h 48% 0.0 mm 821 W/m2
12:07 23.7 °C 12.4 °C 1010.4 hPa NW 6.1 km/h 29.4 km/h 49% 0.0 mm 689 W/m2
12:12 24.2 °C 13.1 °C 1010.4 hPa NW 14.8 km/h 25.6 km/h 50% 0.0 mm 844 W/m2
12:17 24.0 °C 12.0 °C 1010.0 hPa NW 13.4 km/h 30.6 km/h 47% 0.0 mm 872 W/m2
12:22 24.1 °C 12.7 °C 1010.0 hPa NW 9.7 km/h 30.6 km/h 49% 0.0 mm 755 W/m2
12:27 24.0 °C 12.3 °C 1010.0 hPa NNW 13.4 km/h 31.7 km/h 48% 0.0 mm 600 W/m2
12:33 23.7 °C 12.4 °C 1010.4 hPa NW 17.2 km/h 31.7 km/h 49% 0.0 mm 456 W/m2
12:38 23.8 °C 12.8 °C 1010.4 hPa NW 18.3 km/h 31.7 km/h 50% 0.0 mm 758 W/m2
12:43 24.1 °C 12.4 °C 1010.4 hPa NNW 19.5 km/h 30.6 km/h 48% 0.0 mm 839 W/m2
12:49 24.3 °C 12.6 °C 1010.0 hPa NNW 13.4 km/h 30.6 km/h 48% 0.0 mm 808 W/m2
12:53 24.4 °C 12.4 °C 1010.0 hPa NNW 17.2 km/h 30.6 km/h 47% 0.0 mm 777 W/m2
12:58 24.3 °C 12.6 °C 1009.7 hPa NNW 15.8 km/h 34.3 km/h 48% 0.0 mm 651 W/m2
13:03 24.3 °C 12.9 °C 1009.7 hPa NW 6.1 km/h 34.3 km/h 49% 0.0 mm 475 W/m2
13:08 24.0 °C 12.3 °C 1009.4 hPa NNW 15.8 km/h 27.0 km/h 48% 0.0 mm 421 W/m2
13:13 23.7 °C 12.4 °C 1009.7 hPa NNW 12.2 km/h 29.4 km/h 49% 0.0 mm 513 W/m2
13:15 23.7 °C 12.7 °C 1009.7 hPa NNW 7.2 km/h 29.4 km/h 50% 0.0 mm 524 W/m2
13:20 24.0 °C 12.3 °C 1009.7 hPa NW 8.7 km/h 29.4 km/h 48% 0.0 mm 548 W/m2
13:25 24.2 °C 12.5 °C 1010.0 hPa NW 14.8 km/h 31.7 km/h 48% 0.0 mm 494 W/m2
13:30 23.9 °C 12.9 °C 1010.0 hPa NW 14.8 km/h 31.7 km/h 50% 0.0 mm 485 W/m2
13:35 24.1 °C 13.1 °C 1009.7 hPa NW 13.4 km/h 24.5 km/h 50% 0.0 mm 571 W/m2
13:40 24.5 °C 13.4 °C 1009.7 hPa WNW 11.1 km/h 21.9 km/h 50% 0.0 mm 447 W/m2
13:45 24.1 °C 12.7 °C 1010.0 hPa WNW 12.2 km/h 23.3 km/h 49% 0.0 mm 335 W/m2
13:50 23.6 °C 12.3 °C 1010.0 hPa NW 13.4 km/h 29.4 km/h 49% 0.0 mm 378 W/m2
13:55 23.6 °C 13.2 °C 1009.7 hPa NW 14.8 km/h 29.4 km/h 52% 0.0 mm 632 W/m2
14:00 23.5 °C 12.8 °C 1009.7 hPa NNW 13.4 km/h 21.9 km/h 51% 0.0 mm 299 W/m2
14:05 23.4 °C 13.0 °C 1010.0 hPa NNW 2.6 km/h 21.9 km/h 52% 0.0 mm 406 W/m2
14:10 23.6 °C 13.2 °C 1010.0 hPa NNW 12.2 km/h 21.9 km/h 52% 0.0 mm 300 W/m2
14:15 23.3 °C 13.2 °C 1010.0 hPa NNW 13.4 km/h 21.9 km/h 53% 0.0 mm 303 W/m2
14:20 23.4 °C 13.0 °C 1010.0 hPa NNW 13.4 km/h 20.9 km/h 52% 0.0 mm 350 W/m2
14:25 23.5 °C 13.7 °C 1010.0 hPa NNW 3.5 km/h 20.9 km/h 54% 0.0 mm 302 W/m2
14:30 23.7 °C 13.3 °C 1009.7 hPa NNW 11.1 km/h 21.9 km/h 52% 0.0 mm 698 W/m2
14:35 23.8 °C 13.1 °C 1009.7 hPa NNW 12.2 km/h 24.5 km/h 51% 0.0 mm 345 W/m2
14:40 23.7 °C 13.3 °C 1009.7 hPa NNW 9.7 km/h 24.5 km/h 52% 0.0 mm 394 W/m2
14:45 23.6 °C 13.2 °C 1009.7 hPa NNW 12.2 km/h 23.3 km/h 52% 0.0 mm 340 W/m2
14:50 23.3 °C 12.9 °C 1009.7 hPa NW 8.7 km/h 23.3 km/h 52% 0.0 mm 330 W/m2
14:55 23.3 °C 12.9 °C 1009.4 hPa NW 11.1 km/h 20.9 km/h 52% 0.0 mm 307 W/m2
15:00 23.1 °C 13.3 °C 1009.4 hPa NW 8.7 km/h 19.5 km/h 54% 0.0 mm 324 W/m2
15:05 23.4 °C 13.9 °C 1009.4 hPa NNW 3.5 km/h 23.3 km/h 55% 0.0 mm 321 W/m2
15:10 24.4 °C 13.9 °C 1009.4 hPa NW 12.2 km/h 23.3 km/h 52% 0.0 mm 443 W/m2
15:15 24.5 °C 13.4 °C 1009.4 hPa NW 7.2 km/h 18.3 km/h 50% 0.0 mm 723 W/m2
15:20 24.1 °C 13.1 °C 1009.4 hPa NW 12.2 km/h 21.9 km/h 50% 0.0 mm 386 W/m2
15:25 23.9 °C 13.4 °C 1009.4 hPa NW 12.2 km/h 21.9 km/h 52% 0.0 mm 374 W/m2
15:30 23.8 °C 13.7 °C 1009.4 hPa NNW 7.2 km/h 23.3 km/h 53% 0.0 mm 465 W/m2
15:35 24.2 °C 13.7 °C 1009.0 hPa NNW 8.7 km/h 23.3 km/h 52% 0.0 mm 417 W/m2
15:41 24.1 °C 13.7 °C 1009.0 hPa NNW 14.8 km/h 18.3 km/h 52% 0.0 mm 595 W/m2
15:46 24.1 °C 13.3 °C 1008.7 hPa NNW 5.0 km/h 18.3 km/h 51% 0.0 mm 310 W/m2
15:51 23.6 °C 13.5 °C 1009.0 hPa NW 6.1 km/h 20.9 km/h 53% 0.0 mm 243 W/m2
15:56 22.9 °C 13.4 °C 1009.0 hPa NW 7.2 km/h 20.9 km/h 55% 0.0 mm 282 W/m2
16:01 23.4 °C 14.2 °C 1008.7 hPa NW 7.2 km/h 19.5 km/h 56% 0.0 mm 566 W/m2
16:06 23.8 °C 14.5 °C 1008.7 hPa NW 3.5 km/h 19.5 km/h 56% 0.0 mm 429 W/m2
16:16 23.5 °C 13.9 °C 1008.7 hPa NW 12.2 km/h 18.3 km/h 55% 0.0 mm 147 W/m2
16:20 22.7 °C 13.5 °C 1008.7 hPa NW 12.2 km/h 17.2 km/h 56% 0.0 mm 215 W/m2
16:25 22.9 °C 13.7 °C 1008.7 hPa NNW 11.1 km/h 17.2 km/h 56% 0.0 mm 335 W/m2
16:30 22.9 °C 13.9 °C 1009.0 hPa NNW 11.1 km/h 17.2 km/h 57% 0.0 mm 208 W/m2
16:31 22.9 °C 13.9 °C 1008.7 hPa NNW 11.1 km/h 17.2 km/h 57% 0.0 mm 211 W/m2
16:33 22.8 °C 13.8 °C 1008.7 hPa NNW 8.7 km/h 18.3 km/h 57% 0.0 mm 222 W/m2
16:38 22.9 °C 13.7 °C 1008.7 hPa NW 17.2 km/h 33.1 km/h 56% 0.0 mm 213 W/m2
16:43 22.6 °C 13.4 °C 1008.7 hPa NW 7.2 km/h 33.1 km/h 56% 0.0 mm 456 W/m2
16:48 22.9 °C 13.7 °C 1008.7 hPa NW 14.8 km/h 30.6 km/h 56% 0.0 mm 390 W/m2
16:53 23.0 °C 13.8 °C 1008.7 hPa WNW 13.4 km/h 28.0 km/h 56% 0.0 mm 158 W/m2
16:55 22.8 °C 13.3 °C 1008.7 hPa WNW 14.8 km/h 28.0 km/h 55% 0.0 mm 418 W/m2
17:00 23.1 °C 13.6 °C 1008.7 hPa NW 20.9 km/h 29.4 km/h 55% 0.0 mm 398 W/m2
17:05 22.9 °C 12.8 °C 1008.7 hPa NW 7.2 km/h 29.4 km/h 53% 0.0 mm 435 W/m2
17:10 23.4 °C 13.6 °C 1008.4 hPa NW 7.2 km/h 28.0 km/h 54% 0.0 mm 366 W/m2
17:15 23.3 °C 13.2 °C 1008.4 hPa NNW 18.3 km/h 25.6 km/h 53% 0.0 mm 217 W/m2
17:20 23.4 °C 13.3 °C 1008.4 hPa NNW 14.8 km/h 25.6 km/h 53% 0.0 mm 390 W/m2
17:25 23.0 °C 12.6 °C 1008.7 hPa NNW 15.8 km/h 28.0 km/h 52% 0.0 mm 178 W/m2
17:30 22.5 °C 12.7 °C 1008.4 hPa NW 12.2 km/h 28.0 km/h 54% 0.0 mm 349 W/m2
17:35 23.0 °C 12.9 °C 1008.4 hPa NW 9.7 km/h 25.6 km/h 53% 0.0 mm 356 W/m2
17:51 22.8 °C 12.7 °C 1008.4 hPa NNW 11.1 km/h 24.5 km/h 53% 0.0 mm 115 W/m2
17:57 22.2 °C 12.7 °C 1008.4 hPa NNW 3.5 km/h 20.9 km/h 55% 0.0 mm 104 W/m2
18:02 21.8 °C 12.9 °C 1008.7 hPa NW 7.2 km/h 17.2 km/h 57% 0.0 mm 80 W/m2
18:07 21.5 °C 12.6 °C 1008.4 hPa NW 7.2 km/h 17.2 km/h 57% 0.0 mm 79 W/m2
18:12 21.3 °C 12.2 °C 1008.7 hPa NW 8.7 km/h 23.3 km/h 56% 0.0 mm 65 W/m2
18:17 21.3 °C 12.4 °C 1008.4 hPa NW 3.5 km/h 23.3 km/h 57% 0.0 mm 64 W/m2
18:22 21.2 °C 12.3 °C 1008.4 hPa NNW 8.7 km/h 19.5 km/h 57% 0.0 mm 70 W/m2
18:27 21.3 °C 12.2 °C 1008.4 hPa NNW 8.7 km/h 19.5 km/h 56% 0.0 mm 117 W/m2
18:32 21.4 °C 12.3 °C 1008.4 hPa NW 8.7 km/h 24.5 km/h 56% 0.0 mm 79 W/m2
18:37 21.3 °C 12.2 °C 1008.7 hPa NNW 14.8 km/h 27.0 km/h 56% 0.0 mm 83 W/m2
18:42 21.4 °C 12.0 °C 1008.4 hPa NNW 17.2 km/h 27.0 km/h 55% 0.0 mm 82 W/m2
18:47 21.4 °C 12.3 °C 1008.7 hPa NNW 13.4 km/h 23.3 km/h 56% 0.0 mm 74 W/m2
18:52 21.4 °C 12.6 °C 1008.7 hPa NNW 7.2 km/h 23.3 km/h 57% 0.0 mm 66 W/m2
18:57 21.4 °C 12.6 °C 1008.7 hPa NW 8.7 km/h 18.3 km/h 57% 0.0 mm 81 W/m2
19:02 21.3 °C 12.7 °C 1008.7 hPa NNW 6.1 km/h 18.3 km/h 58% 0.0 mm 60 W/m2
19:07 21.2 °C 12.3 °C 1008.7 hPa NNW 6.1 km/h 19.5 km/h 57% 0.0 mm 58 W/m2
19:12 21.2 °C 12.3 °C 1008.7 hPa NW 6.1 km/h 19.5 km/h 57% 0.0 mm 57 W/m2
19:17 21.0 °C 12.2 °C 1009.0 hPa NW 9.7 km/h 20.9 km/h 57% 0.0 mm 44 W/m2
19:22 20.9 °C 12.6 °C 1008.7 hPa NW 11.1 km/h 20.9 km/h 59% 0.0 mm 34 W/m2
19:27 20.6 °C 12.3 °C 1008.7 hPa NNW 6.1 km/h 18.3 km/h 59% 0.0 mm 21 W/m2
19:32 20.3 °C 12.3 °C 1008.7 hPa NNW 9.7 km/h 18.3 km/h 60% 0.0 mm 16 W/m2
19:37 20.1 °C 11.8 °C 1009.0 hPa NNW 12.2 km/h 20.9 km/h 59% 0.0 mm 9 W/m2
19:42 19.8 °C 11.8 °C 1008.7 hPa NW 9.7 km/h 20.9 km/h 60% 0.0 mm 4 W/m2
19:47 19.7 °C 11.7 °C 1009.0 hPa NNW 8.7 km/h 23.3 km/h 60% 0.0 mm 1 W/m2
19:52 19.5 °C 11.8 °C 1008.7 hPa NNW 2.6 km/h 23.3 km/h 61% 0.0 mm 0 W/m2
19:57 19.3 °C 11.8 °C 1008.7 hPa NNW 2.6 km/h 12.2 km/h 62% 0.0 mm 0 W/m2
20:02 19.1 °C 11.7 °C 1009.0 hPa NNW 7.2 km/h 13.4 km/h 62% 0.0 mm 0 W/m2
20:07 19.1 °C 11.7 °C 1008.7 hPa NNW 1.1 km/h 13.4 km/h 62% 0.0 mm 0 W/m2
20:12 18.9 °C 11.9 °C 1009.0 hPa NNW 2.6 km/h 13.4 km/h 64% 0.0 mm 0 W/m2
20:17 18.8 °C 12.1 °C 1008.7 hPa NNW 5.0 km/h 12.2 km/h 65% 0.0 mm 0 W/m2
20:22 18.8 °C 12.1 °C 1009.0 hPa Calm   12.2 km/h 65% 0.0 mm 0 W/m2
20:27 18.7 °C 12.0 °C 1009.4 hPa Calm   11.1 km/h 65% 0.0 mm 0 W/m2
20:32 18.4 °C 11.7 °C 1009.4 hPa Calm   7.2 km/h 65% 0.0 mm 0 W/m2
20:37 18.2 °C 11.8 °C 1009.4 hPa Calm   5.0 km/h 66% 0.0 mm 0 W/m2
20:42 18.0 °C 11.6 °C 1009.4 hPa Calm   2.6 km/h 66% 0.0 mm 0 W/m2
20:47 17.8 °C 11.4 °C 1009.4 hPa WNW 1.1 km/h 8.7 km/h 66% 0.0 mm 0 W/m2
20:52 17.8 °C 11.4 °C 1009.4 hPa Calm   8.7 km/h 66% 0.0 mm 0 W/m2
20:57 17.6 °C 11.2 °C 1009.4 hPa Calm   7.2 km/h 66% 0.0 mm 0 W/m2
21:02 17.5 °C 11.1 °C 1009.4 hPa Calm   7.2 km/h 66% 0.0 mm 0 W/m2
21:07 17.4 °C 11.0 °C 1009.4 hPa Calm   7.2 km/h 66% 0.0 mm 0 W/m2
21:12 17.3 °C 10.9 °C 1009.4 hPa Calm   2.6 km/h 66% 0.0 mm 0 W/m2
21:17 17.1 °C 10.7 °C 1009.4 hPa Calm   3.5 km/h 66% 0.0 mm 0 W/m2
21:22 17.0 °C 10.8 °C 1009.4 hPa Calm   3.5 km/h 67% 0.0 mm 0 W/m2
21:28 16.8 °C 10.9 °C 1009.4 hPa Calm   2.6 km/h 68% 0.0 mm 0 W/m2
21:33 16.6 °C 10.9 °C 1009.4 hPa Calm     69% 0.0 mm 0 W/m2
21:38 16.3 °C 10.8 °C 1009.4 hPa Calm     70% 0.0 mm 0 W/m2
21:43 16.2 °C 10.9 °C 1009.4 hPa Calm     71% 0.0 mm 0 W/m2
21:48 16.2 °C 11.2 °C 1009.4 hPa Calm     72% 0.0 mm 0 W/m2
21:53 16.0 °C 10.9 °C 1009.4 hPa Calm     72% 0.0 mm 0 W/m2
21:58 15.9 °C 11.1 °C 1009.4 hPa Calm     73% 0.0 mm 0 W/m2
22:03 15.7 °C 10.9 °C 1009.4 hPa Calm     73% 0.0 mm 0 W/m2
22:08 15.5 °C 10.9 °C 1009.0 hPa Calm     74% 0.0 mm 0 W/m2
22:13 15.4 °C 10.8 °C 1009.4 hPa Calm     74% 0.0 mm 0 W/m2
22:18 15.3 °C 10.9 °C 1009.4 hPa Calm     75% 0.0 mm 0 W/m2
22:23 15.2 °C 11.0 °C 1009.0 hPa Calm     76% 0.0 mm 0 W/m2
22:28 15.2 °C 11.0 °C 1009.4 hPa Calm     76% 0.0 mm 0 W/m2
22:33 15.1 °C 10.9 °C 1009.4 hPa Calm     76% 0.0 mm 0 W/m2
22:38 15.0 °C 10.8 °C 1009.4 hPa Calm     76% 0.0 mm 0 W/m2
22:43 15.0 °C 11.0 °C 1009.4 hPa Calm     77% 0.0 mm 0 W/m2
22:48 14.9 °C 11.3 °C 1009.4 hPa Calm     79% 0.0 mm 0 W/m2
22:53 14.8 °C 11.2 °C 1009.0 hPa Calm     79% 0.0 mm 0 W/m2
22:58 14.7 °C 11.3 °C 1009.0 hPa Calm   1.1 km/h 80% 0.0 mm 0 W/m2
23:03 14.7 °C 11.3 °C 1009.4 hPa Calm   1.1 km/h 80% 0.0 mm 0 W/m2
23:08 14.5 °C 11.3 °C 1009.0 hPa Calm   1.1 km/h 81% 0.0 mm 0 W/m2
23:13 14.5 °C 11.3 °C 1009.0 hPa Calm   1.1 km/h 81% 0.0 mm 0 W/m2
23:18 14.5 °C 11.4 °C 1009.0 hPa Calm   1.1 km/h 82% 0.0 mm 0 W/m2
23:23 14.5 °C 11.7 °C 1009.0 hPa Calm   1.1 km/h 83% 0.0 mm 0 W/m2
23:28 14.5 °C 11.7 °C 1009.0 hPa Calm   1.1 km/h 83% 0.0 mm 0 W/m2
23:33 14.3 °C 11.4 °C 1009.0 hPa Calm   1.1 km/h 83% 0.0 mm 0 W/m2
23:38 14.3 °C 11.4 °C 1009.0 hPa Calm   1.1 km/h 83% 0.0 mm 0 W/m2
23:43 14.2 °C 11.3 °C 1009.0 hPa Calm     83% 0.0 mm 0 W/m2
23:48 14.2 °C 11.6 °C 1009.0 hPa North 1.1 km/h 5.0 km/h 84% 0.0 mm 0 W/m2
23:53 14.3 °C 11.4 °C 1009.0 hPa Calm   7.2 km/h 83% 0.0 mm 0 W/m2
23:58 14.3 °C 11.4 °C 1008.7 hPa Calm   7.2 km/h 83% 0.0 mm 0 W/m2
Northern Hawkes Bay. New Zealand Historic Data
Compliments of Weather Underground - 2 mb